sensor_id;sensor_type;location;lat;lon;timestamp;pressure;altitude;pressure_sealevel;temperature;humidity
72855;BME280;60991;51.278;22.550;2022-08-06T00:00:19;98989.59;;;24.92;55.60
72855;BME280;60991;51.278;22.550;2022-08-06T00:01:49;98999.69;;;24.92;55.46
72855;BME280;60991;51.278;22.550;2022-08-06T00:03:20;98999.56;;;24.88;55.64
72855;BME280;60991;51.278;22.550;2022-08-06T00:04:51;99006.03;;;24.83;55.92
72855;BME280;60991;51.278;22.550;2022-08-06T00:06:21;99002.41;;;24.79;56.00
72855;BME280;60991;51.278;22.550;2022-08-06T00:07:51;99008.53;;;24.76;55.76
72855;BME280;60991;51.278;22.550;2022-08-06T00:09:22;99001.16;;;24.77;55.91
72855;BME280;60991;51.278;22.550;2022-08-06T00:10:52;99001.50;;;24.75;55.78
72855;BME280;60991;51.278;22.550;2022-08-06T00:12:22;98998.78;;;24.75;55.64
72855;BME280;60991;51.278;22.550;2022-08-06T00:13:53;98999.59;;;24.76;55.76
72855;BME280;60991;51.278;22.550;2022-08-06T00:15:23;99001.50;;;24.75;56.06
72855;BME280;60991;51.278;22.550;2022-08-06T00:16:54;98995.28;;;24.75;55.92
72855;BME280;60991;51.278;22.550;2022-08-06T00:18:24;99005.00;;;24.76;56.07
72855;BME280;60991;51.278;22.550;2022-08-06T00:19:55;98996.06;;;24.75;56.01
72855;BME280;60991;51.278;22.550;2022-08-06T00:21:25;98991.78;;;24.74;55.89
72855;BME280;60991;51.278;22.550;2022-08-06T00:22:56;98984.75;;;24.73;56.14
72855;BME280;60991;51.278;22.550;2022-08-06T00:24:27;98992.91;;;24.73;56.11
72855;BME280;60991;51.278;22.550;2022-08-06T00:25:57;98988.84;;;24.67;56.40
72855;BME280;60991;51.278;22.550;2022-08-06T00:27:28;98993.72;;;24.62;56.45
72855;BME280;60991;51.278;22.550;2022-08-06T00:28:58;98983.75;;;24.54;56.74
72855;BME280;60991;51.278;22.550;2022-08-06T00:30:28;98988.72;;;24.51;56.83
72855;BME280;60991;51.278;22.550;2022-08-06T00:31:58;98996.41;;;24.49;56.63
72855;BME280;60991;51.278;22.550;2022-08-06T00:33:29;98988.25;;;24.49;56.47
72855;BME280;60991;51.278;22.550;2022-08-06T00:34:59;98989.06;;;24.50;56.53
72855;BME280;60991;51.278;22.550;2022-08-06T00:36:32;98993.34;;;24.51;56.38
72855;BME280;60991;51.278;22.550;2022-08-06T00:38:02;98989.44;;;24.48;56.69
72855;BME280;60991;51.278;22.550;2022-08-06T00:39:33;98992.13;;;24.48;56.72
72855;BME280;60991;51.278;22.550;2022-08-06T00:41:04;98991.34;;;24.48;56.67
72855;BME280;60991;51.278;22.550;2022-08-06T00:42:34;98992.81;;;24.45;56.88
72855;BME280;60991;51.278;22.550;2022-08-06T00:44:04;98994.28;;;24.43;57.38
72855;BME280;60991;51.278;22.550;2022-08-06T00:45:35;98998.44;;;24.40;57.12
72855;BME280;60991;51.278;22.550;2022-08-06T00:47:06;98989.06;;;24.38;56.95
72855;BME280;60991;51.278;22.550;2022-08-06T00:48:36;98992.91;;;24.37;57.20
72855;BME280;60991;51.278;22.550;2022-08-06T00:50:07;98988.47;;;24.32;57.28
72855;BME280;60991;51.278;22.550;2022-08-06T00:51:38;98991.53;;;24.31;57.41
72855;BME280;60991;51.278;22.550;2022-08-06T00:53:08;98991.09;;;24.29;57.54
72855;BME280;60991;51.278;22.550;2022-08-06T00:54:38;98996.88;;;24.27;57.27
72855;BME280;60991;51.278;22.550;2022-08-06T00:56:09;99005.34;;;24.26;57.39
72855;BME280;60991;51.278;22.550;2022-08-06T00:57:39;98998.97;;;24.22;57.54
72855;BME280;60991;51.278;22.550;2022-08-06T00:59:09;98993.88;;;24.20;57.65
72855;BME280;60991;51.278;22.550;2022-08-06T01:00:40;98999.63;;;24.18;57.80
72855;BME280;60991;51.278;22.550;2022-08-06T01:02:10;98995.34;;;24.17;57.80
72855;BME280;60991;51.278;22.550;2022-08-06T01:03:40;98994.53;;;24.17;57.51
72855;BME280;60991;51.278;22.550;2022-08-06T01:05:11;98993.75;;;24.16;57.51
72855;BME280;60991;51.278;22.550;2022-08-06T01:06:42;98994.41;;;24.13;57.63
72855;BME280;60991;51.278;22.550;2022-08-06T01:08:12;98993.53;;;24.09;57.60
72855;BME280;60991;51.278;22.550;2022-08-06T01:09:42;98996.56;;;24.08;57.71
72855;BME280;60991;51.278;22.550;2022-08-06T01:11:13;98996.91;;;24.06;58.00
72855;BME280;60991;51.278;22.550;2022-08-06T01:12:43;98996.78;;;24.03;58.14
72855;BME280;60991;51.278;22.550;2022-08-06T01:14:13;98996.78;;;24.03;57.94
72855;BME280;60991;51.278;22.550;2022-08-06T01:15:52;98988.31;;;24.04;58.37
72855;BME280;60991;51.278;22.550;2022-08-06T01:17:34;98994.53;;;24.05;58.27
72855;BME280;60991;51.278;22.550;2022-08-06T01:21:34;99000.28;;;24.03;58.08
72855;BME280;60991;51.278;22.550;2022-08-06T01:26:53;98993.25;;;23.90;58.66
72855;BME280;60991;51.278;22.550;2022-08-06T01:30:23;98995.97;;;23.90;58.77
72855;BME280;60991;51.278;22.550;2022-08-06T01:33:37;98998.56;;;23.87;58.94
72855;BME280;60991;51.278;22.550;2022-08-06T01:35:18;98993.91;;;23.87;59.06
72855;BME280;60991;51.278;22.550;2022-08-06T01:36:56;98995.84;;;23.87;58.81
72855;BME280;60991;51.278;22.550;2022-08-06T01:38:44;98995.84;;;23.87;59.21
72855;BME280;60991;51.278;22.550;2022-08-06T01:40:19;98998.09;;;23.85;59.36
72855;BME280;60991;51.278;22.550;2022-08-06T01:41:54;99002.38;;;23.86;59.22
72855;BME280;60991;51.278;22.550;2022-08-06T01:43:26;98998.09;;;23.85;59.52
72855;BME280;60991;51.278;22.550;2022-08-06T01:45:00;99000.00;;;23.84;59.43
72855;BME280;60991;51.278;22.550;2022-08-06T01:46:35;99000.34;;;23.82;59.39
72855;BME280;60991;51.278;22.550;2022-08-06T01:48:18;99000.66;;;23.81;59.63
72855;BME280;60991;51.278;22.550;2022-08-06T01:49:53;99003.25;;;23.77;59.43
72855;BME280;60991;51.278;22.550;2022-08-06T01:51:26;99003.47;;;23.72;60.06
72855;BME280;60991;51.278;22.550;2022-08-06T01:52:58;98998.13;;;23.64;59.97
72855;BME280;60991;51.278;22.550;2022-08-06T01:54:30;98992.25;;;23.62;60.16
72855;BME280;60991;51.278;22.550;2022-08-06T01:56:06;99005.00;;;23.61;60.00
72855;BME280;60991;51.278;22.550;2022-08-06T01:57:38;98991.78;;;23.60;60.31
72855;BME280;60991;51.278;22.550;2022-08-06T01:59:12;98996.72;;;23.58;60.33
72855;BME280;60991;51.278;22.550;2022-08-06T02:00:46;98990.09;;;23.55;60.14
72855;BME280;60991;51.278;22.550;2022-08-06T02:02:22;98987.25;;;23.52;60.26
72855;BME280;60991;51.278;22.550;2022-08-06T02:03:54;98990.91;;;23.47;60.40
72855;BME280;60991;51.278;22.550;2022-08-06T02:05:28;98990.91;;;23.47;60.81
72855;BME280;60991;51.278;22.550;2022-08-06T02:07:01;98996.34;;;23.47;60.47
72855;BME280;60991;51.278;22.550;2022-08-06T02:08:34;98996.34;;;23.47;60.57
72855;BME280;60991;51.278;22.550;2022-08-06T02:10:08;99005.25;;;23.47;60.53
72855;BME280;60991;51.278;22.550;2022-08-06T02:11:41;99007.16;;;23.47;60.64
72855;BME280;60991;51.278;22.550;2022-08-06T02:13:15;98999.03;;;23.47;60.50
72855;BME280;60991;51.278;22.550;2022-08-06T02:14:54;98992.81;;;23.46;61.00
72855;BME280;60991;51.278;22.550;2022-08-06T02:16:29;98992.38;;;23.44;60.71
72855;BME280;60991;51.278;22.550;2022-08-06T02:18:02;98993.94;;;23.45;60.82
72855;BME280;60991;51.278;22.550;2022-08-06T02:19:36;98991.56;;;23.44;60.51
72855;BME280;60991;51.278;22.550;2022-08-06T02:21:19;98992.38;;;23.44;60.71
72855;BME280;60991;51.278;22.550;2022-08-06T02:22:51;98991.56;;;23.44;60.76
72855;BME280;60991;51.278;22.550;2022-08-06T02:24:24;98984.56;;;23.43;60.72
72855;BME280;60991;51.278;22.550;2022-08-06T02:25:57;98982.19;;;23.41;60.99
72855;BME280;60991;51.278;22.550;2022-08-06T02:27:29;98989.41;;;23.37;61.14
72855;BME280;60991;51.278;22.550;2022-08-06T02:29:04;98983.41;;;23.32;61.06
72855;BME280;60991;51.278;22.550;2022-08-06T02:30:38;98981.66;;;23.27;61.28
72855;BME280;60991;51.278;22.550;2022-08-06T02:32:10;98988.72;;;23.20;61.68
72855;BME280;60991;51.278;22.550;2022-08-06T02:33:41;98994.16;;;23.20;61.64
72855;BME280;60991;51.278;22.550;2022-08-06T02:35:12;98995.31;;;23.19;61.40
72855;BME280;60991;51.278;22.550;2022-08-06T02:36:51;98993.38;;;23.19;61.84
72855;BME280;60991;51.278;22.550;2022-08-06T02:38:24;98998.00;;;23.19;61.35
72855;BME280;60991;51.278;22.550;2022-08-06T02:40:05;99002.28;;;23.20;61.77
72855;BME280;60991;51.278;22.550;2022-08-06T02:41:50;98996.41;;;23.18;61.31
72855;BME280;60991;51.278;22.550;2022-08-06T02:43:33;98999.91;;;23.18;61.29
72855;BME280;60991;51.278;22.550;2022-08-06T02:45:21;98996.09;;;23.19;61.30
72855;BME280;60991;51.278;22.550;2022-08-06T02:47:04;98995.31;;;23.19;61.37
72855;BME280;60991;51.278;22.550;2022-08-06T02:50:27;98992.59;;;23.19;61.93
72855;BME280;60991;51.278;22.550;2022-08-06T02:52:08;98990.69;;;23.19;61.73
72855;BME280;60991;51.278;22.550;2022-08-06T02:53:58;98993.72;;;23.18;61.78
72855;BME280;60991;51.278;22.550;2022-08-06T02:55:32;98991.78;;;23.18;61.92
72855;BME280;60991;51.278;22.550;2022-08-06T02:57:06;98992.91;;;23.17;61.53
72855;BME280;60991;51.278;22.550;2022-08-06T02:58:46;98999.78;;;23.14;61.65
72855;BME280;60991;51.278;22.550;2022-08-06T03:00:18;98998.84;;;23.10;61.88
72855;BME280;60991;51.278;22.550;2022-08-06T03:01:54;99000.28;;;23.08;62.08
72855;BME280;60991;51.278;22.550;2022-08-06T03:03:27;98996.97;;;23.02;62.21
72855;BME280;60991;51.278;22.550;2022-08-06T03:05:01;99002.38;;;23.02;62.27
72855;BME280;60991;51.278;22.550;2022-08-06T03:06:35;98998.09;;;23.01;62.04
72855;BME280;60991;51.278;22.550;2022-08-06T03:08:08;98993.47;;;23.02;62.38
72855;BME280;60991;51.278;22.550;2022-08-06T03:09:41;98993.47;;;23.02;62.50
72855;BME280;60991;51.278;22.550;2022-08-06T03:11:15;98995.06;;;23.03;62.32
72855;BME280;60991;51.278;22.550;2022-08-06T03:12:48;98989.66;;;23.03;62.32
72855;BME280;60991;51.278;22.550;2022-08-06T03:14:21;98992.03;;;23.04;62.55
72855;BME280;60991;51.278;22.550;2022-08-06T03:15:52;98993.16;;;23.03;61.96
72855;BME280;60991;51.278;22.550;2022-08-06T03:17:25;98995.06;;;23.03;62.29
72855;BME280;60991;51.278;22.550;2022-08-06T03:18:57;98991.78;;;22.97;62.31
72855;BME280;60991;51.278;22.550;2022-08-06T03:20:29;98988.59;;;22.95;62.59
72855;BME280;60991;51.278;22.550;2022-08-06T03:22:01;98991.63;;;22.94;62.18
72855;BME280;60991;51.278;22.550;2022-08-06T03:23:33;98991.63;;;22.94;62.48
72855;BME280;60991;51.278;22.550;2022-08-06T03:25:06;98995.13;;;22.94;62.24
72855;BME280;60991;51.278;22.550;2022-08-06T03:26:37;99002.00;;;22.92;62.73
72855;BME280;60991;51.278;22.550;2022-08-06T03:28:10;99004.22;;;22.90;62.52
72855;BME280;60991;51.278;22.550;2022-08-06T03:29:42;99001.06;;;22.88;62.48
72855;BME280;60991;51.278;22.550;2022-08-06T03:31:13;98996.13;;;22.90;62.19
72855;BME280;60991;51.278;22.550;2022-08-06T03:32:45;99004.22;;;22.90;62.19
72855;BME280;60991;51.278;22.550;2022-08-06T03:34:16;98998.50;;;22.91;62.58
72855;BME280;60991;51.278;22.550;2022-08-06T03:35:48;99000.09;;;22.92;62.27
72855;BME280;60991;51.278;22.550;2022-08-06T03:37:20;99002.00;;;22.92;62.67
72855;BME280;60991;51.278;22.550;2022-08-06T03:39:00;99002.66;;;22.89;62.43
72855;BME280;60991;51.278;22.550;2022-08-06T03:40:31;99002.66;;;22.89;62.45
72855;BME280;60991;51.278;22.550;2022-08-06T03:42:02;99008.38;;;22.87;62.49
72855;BME280;60991;51.278;22.550;2022-08-06T03:43:34;99014.59;;;22.88;62.84
72855;BME280;60991;51.278;22.550;2022-08-06T03:45:05;99014.59;;;22.88;62.91
72855;BME280;60991;51.278;22.550;2022-08-06T03:48:24;99013.94;;;22.91;62.81
72855;BME280;60991;51.278;22.550;2022-08-06T03:50:05;99016.31;;;22.92;62.80
72855;BME280;60991;51.278;22.550;2022-08-06T03:51:38;99025.25;;;22.93;62.95
72855;BME280;60991;51.278;22.550;2022-08-06T03:53:15;99016.31;;;22.92;62.98
72855;BME280;60991;51.278;22.550;2022-08-06T03:54:50;99023.66;;;22.92;62.47
72855;BME280;60991;51.278;22.550;2022-08-06T03:56:23;99014.28;;;22.89;62.66
72855;BME280;60991;51.278;22.550;2022-08-06T03:57:57;99021.13;;;22.87;62.86
72855;BME280;60991;51.278;22.550;2022-08-06T03:59:30;99021.91;;;22.87;62.80
72855;BME280;60991;51.278;22.550;2022-08-06T04:01:05;99018.09;;;22.88;63.14
72855;BME280;60991;51.278;22.550;2022-08-06T04:02:40;99020.47;;;22.90;63.20
72855;BME280;60991;51.278;22.550;2022-08-06T04:04:13;99021.28;;;22.90;62.71
72855;BME280;60991;51.278;22.550;2022-08-06T04:05:45;99021.75;;;22.92;63.05
72855;BME280;60991;51.278;22.550;2022-08-06T04:07:16;99027.94;;;22.93;62.98
72855;BME280;60991;51.278;22.550;2022-08-06T04:08:48;99026.03;;;22.93;63.06
72855;BME280;60991;51.278;22.550;2022-08-06T04:10:20;99023.66;;;22.92;63.50
72855;BME280;60991;51.278;22.550;2022-08-06T04:11:52;99037.97;;;22.92;63.25
72855;BME280;60991;51.278;22.550;2022-08-06T04:13:25;99041.00;;;22.91;63.69
72855;BME280;60991;51.278;22.550;2022-08-06T04:14:58;99043.72;;;22.91;63.56
72855;BME280;60991;51.278;22.550;2022-08-06T04:16:30;99039.91;;;22.92;63.92
72855;BME280;60991;51.278;22.550;2022-08-06T04:18:01;99038.44;;;22.94;63.87
72855;BME280;60991;51.278;22.550;2022-08-06T04:19:33;99041.31;;;22.98;63.71
72855;BME280;60991;51.278;22.550;2022-08-06T04:21:11;99049.53;;;23.01;63.60
72855;BME280;60991;51.278;22.550;2022-08-06T04:22:44;99050.00;;;23.03;63.40
72855;BME280;60991;51.278;22.550;2022-08-06T04:24:14;99050.81;;;23.04;63.51
72855;BME280;60991;51.278;22.550;2022-08-06T04:25:49;99044.28;;;23.05;63.16
72855;BME280;60991;51.278;22.550;2022-08-06T04:27:23;99046.19;;;23.04;63.13
72855;BME280;60991;51.278;22.550;2022-08-06T04:28:55;99052.84;;;23.07;63.26
72855;BME280;60991;51.278;22.550;2022-08-06T04:30:27;99048.56;;;23.06;63.68
72855;BME280;60991;51.278;22.550;2022-08-06T04:31:59;99053.19;;;23.05;63.59
72855;BME280;60991;51.278;22.550;2022-08-06T04:33:31;99050.94;;;23.07;63.54
72855;BME280;60991;51.278;22.550;2022-08-06T04:35:06;99051.41;;;23.09;63.35
72855;BME280;60991;51.278;22.550;2022-08-06T04:36:38;99054.13;;;23.09;63.43
72855;BME280;60991;51.278;22.550;2022-08-06T04:38:09;99060.34;;;23.10;63.35
72855;BME280;60991;51.278;22.550;2022-08-06T04:39:40;99061.91;;;23.11;63.23
72855;BME280;60991;51.278;22.550;2022-08-06T04:41:12;99054.25;;;23.13;63.28
72855;BME280;60991;51.278;22.550;2022-08-06T04:42:43;99053.63;;;23.16;63.28
72855;BME280;60991;51.278;22.550;2022-08-06T04:44:13;99052.16;;;23.19;63.01
72855;BME280;60991;51.278;22.550;2022-08-06T04:45:44;99054.53;;;23.20;63.36
72855;BME280;60991;51.278;22.550;2022-08-06T04:47:16;99045.75;;;23.23;62.98
72855;BME280;60991;51.278;22.550;2022-08-06T04:48:47;99049.72;;;23.26;62.90
72855;BME280;60991;51.278;22.550;2022-08-06T04:50:18;99054.81;;;23.27;63.11
72855;BME280;60991;51.278;22.550;2022-08-06T04:51:48;99055.28;;;23.29;63.01
72855;BME280;60991;51.278;22.550;2022-08-06T04:53:19;99054.94;;;23.31;63.16
72855;BME280;60991;51.278;22.550;2022-08-06T04:54:49;99052.69;;;23.33;63.40
72855;BME280;60991;51.278;22.550;2022-08-06T04:56:20;99051.13;;;23.32;62.97
72855;BME280;60991;51.278;22.550;2022-08-06T04:57:50;99053.34;;;23.30;63.51
72855;BME280;60991;51.278;22.550;2022-08-06T04:59:20;99047.94;;;23.30;63.39
72855;BME280;60991;51.278;22.550;2022-08-06T05:00:51;99052.69;;;23.33;63.09
72855;BME280;60991;51.278;22.550;2022-08-06T05:02:21;99055.09;;;23.34;62.91
72855;BME280;60991;51.278;22.550;2022-08-06T05:03:51;99054.75;;;23.36;62.79
72855;BME280;60991;51.278;22.550;2022-08-06T05:05:22;99057.94;;;23.38;62.87
72855;BME280;60991;51.278;22.550;2022-08-06T05:07:01;99057.25;;;23.41;63.17
72855;BME280;60991;51.278;22.550;2022-08-06T05:08:36;99056.13;;;23.42;62.83
72855;BME280;60991;51.278;22.550;2022-08-06T05:10:07;99060.09;;;23.44;63.21
72855;BME280;60991;51.278;22.550;2022-08-06T05:11:41;99055.16;;;23.46;62.80
72855;BME280;60991;51.278;22.550;2022-08-06T05:13:13;99058.00;;;23.50;63.06
72855;BME280;60991;51.278;22.550;2022-08-06T05:15:07;99060.41;;;23.52;62.62
72855;BME280;60991;51.278;22.550;2022-08-06T05:16:38;99054.66;;;23.53;62.62
72855;BME280;60991;51.278;22.550;2022-08-06T05:18:17;99056.25;;;23.54;62.82
72855;BME280;60991;51.278;22.550;2022-08-06T05:19:59;99056.34;;;23.58;62.90
72855;BME280;60991;51.278;22.550;2022-08-06T05:21:36;99051.72;;;23.58;62.70
72855;BME280;60991;51.278;22.550;2022-08-06T05:23:12;99061.44;;;23.59;62.76
72855;BME280;60991;51.278;22.550;2022-08-06T05:24:43;99056.03;;;23.59;62.41
72855;BME280;60991;51.278;22.550;2022-08-06T05:26:13;99062.69;;;23.62;62.56
72855;BME280;60991;51.278;22.550;2022-08-06T05:27:44;99066.66;;;23.64;62.44
72855;BME280;60991;51.278;22.550;2022-08-06T05:29:21;99070.97;;;23.65;62.47
72855;BME280;60991;51.278;22.550;2022-08-06T05:30:51;99066.81;;;23.68;62.52
72855;BME280;60991;51.278;22.550;2022-08-06T05:32:22;99068.41;;;23.69;62.41
72855;BME280;60991;51.278;22.550;2022-08-06T05:33:52;99068.84;;;23.71;62.39
72855;BME280;60991;51.278;22.550;2022-08-06T05:35:23;99060.06;;;23.74;62.23
72855;BME280;60991;51.278;22.550;2022-08-06T05:36:53;99065.91;;;23.76;62.64
72855;BME280;60991;51.278;22.550;2022-08-06T05:38:24;99065.59;;;23.77;62.05
72855;BME280;60991;51.278;22.550;2022-08-06T05:39:54;99065.25;;;23.79;62.37
72855;BME280;60991;51.278;22.550;2022-08-06T05:41:24;99064.59;;;23.82;62.63
72855;BME280;60991;51.278;22.550;2022-08-06T05:42:54;99063.16;;;23.85;62.32
72855;BME280;60991;51.278;22.550;2022-08-06T05:44:25;99065.53;;;23.86;62.37
72855;BME280;60991;51.278;22.550;2022-08-06T05:46:00;99067.59;;;23.89;62.39
72855;BME280;60991;51.278;22.550;2022-08-06T05:47:34;99062.63;;;23.91;61.85
72855;BME280;60991;51.278;22.550;2022-08-06T05:49:13;99068.50;;;23.93;61.68
72855;BME280;60991;51.278;22.550;2022-08-06T05:50:54;99070.53;;;23.96;61.69
72855;BME280;60991;51.278;22.550;2022-08-06T05:53:06;99071.78;;;23.99;61.62
72855;BME280;60991;51.278;22.550;2022-08-06T05:56:16;99073.16;;;24.05;61.80
72855;BME280;60991;51.278;22.550;2022-08-06T05:57:51;99072.50;;;24.08;61.38
72855;BME280;60991;51.278;22.550;2022-08-06T05:59:28;99074.56;;;24.11;61.74
72855;BME280;60991;51.278;22.550;2022-08-06T06:01:02;99075.00;;;24.13;61.71
72855;BME280;60991;51.278;22.550;2022-08-06T06:02:33;99074.31;;;24.16;61.76
72855;BME280;60991;51.278;22.550;2022-08-06T06:04:05;99075.59;;;24.18;61.83
72855;BME280;60991;51.278;22.550;2022-08-06T06:05:37;99074.13;;;24.21;61.50
72855;BME280;60991;51.278;22.550;2022-08-06T06:07:08;99075.06;;;24.25;61.38
72855;BME280;60991;51.278;22.550;2022-08-06T06:08:39;99075.53;;;24.27;61.19
72855;BME280;60991;51.278;22.550;2022-08-06T06:10:09;99081.06;;;24.31;61.18
72855;BME280;60991;51.278;22.550;2022-08-06T06:11:41;99075.75;;;24.34;60.70
72855;BME280;60991;51.278;22.550;2022-08-06T06:13:11;99081.31;;;24.38;60.55
72855;BME280;60991;51.278;22.550;2022-08-06T06:14:43;99072.84;;;24.39;60.37
72855;BME280;60991;51.278;22.550;2022-08-06T06:22:13;99072.19;;;24.55;60.22
72855;BME280;60991;51.278;22.550;2022-08-06T06:24:31;99072.31;;;24.58;60.24
72855;BME280;60991;51.278;22.550;2022-08-06T06:25:46;99077.06;;;24.61;60.14
72855;BME280;60991;51.278;22.550;2022-08-06T06:31:04;99075.47;;;24.72;59.33
72855;BME280;60991;51.278;22.550;2022-08-06T06:32:48;99069.38;;;24.75;59.19
72855;BME280;60991;51.278;22.550;2022-08-06T06:34:28;99077.63;;;24.79;59.30
72855;BME280;60991;51.278;22.550;2022-08-06T06:36:05;99071.53;;;24.82;59.19
72855;BME280;60991;51.278;22.550;2022-08-06T06:37:57;99074.38;;;24.85;59.21
72855;BME280;60991;51.278;22.550;2022-08-06T06:39:39;99079.56;;;24.91;59.73
72855;BME280;60991;51.278;22.550;2022-08-06T06:41:31;99069.63;;;24.95;59.27
72855;BME280;60991;51.278;22.550;2022-08-06T06:43:23;99077.56;;;25.00;58.78
72855;BME280;60991;51.278;22.550;2022-08-06T06:45:18;99072.69;;;25.05;59.00
72855;BME280;60991;51.278;22.550;2022-08-06T06:47:03;99075.50;;;25.09;58.94
72855;BME280;60991;51.278;22.550;2022-08-06T06:48:39;99076.41;;;25.13;58.22
72855;BME280;60991;51.278;22.550;2022-08-06T06:50:25;99073.47;;;25.18;57.54
72855;BME280;60991;51.278;22.550;2022-08-06T06:52:03;99075.19;;;25.23;57.36
72855;BME280;60991;51.278;22.550;2022-08-06T06:53:40;99079.91;;;25.26;57.63
72855;BME280;60991;51.278;22.550;2022-08-06T06:55:22;99072.31;;;25.31;56.44
72855;BME280;60991;51.278;22.550;2022-08-06T06:56:56;99077.97;;;25.38;56.76
72855;BME280;60991;51.278;22.550;2022-08-06T07:00:04;99080.09;;;25.45;56.32
72855;BME280;60991;51.278;22.550;2022-08-06T07:01:36;99077.47;;;25.48;56.26
72855;BME280;60991;51.278;22.550;2022-08-06T07:03:08;99076.00;;;25.51;56.43
72855;BME280;60991;51.278;22.550;2022-08-06T07:04:40;99076.91;;;25.55;56.50
72855;BME280;60991;51.278;22.550;2022-08-06T07:06:12;99087.56;;;25.60;56.04
72855;BME280;60991;51.278;22.550;2022-08-06T07:07:45;99083.03;;;25.64;56.04
72855;BME280;60991;51.278;22.550;2022-08-06T07:09:18;99083.91;;;25.68;56.10
72855;BME280;60991;51.278;22.550;2022-08-06T07:10:51;99091.06;;;25.73;55.24
72855;BME280;60991;51.278;22.550;2022-08-06T07:12:23;99087.66;;;25.76;54.98
72855;BME280;60991;51.278;22.550;2022-08-06T07:13:57;99090.44;;;25.79;55.08
72855;BME280;60991;51.278;22.550;2022-08-06T07:15:28;99090.56;;;25.83;55.02
72855;BME280;60991;51.278;22.550;2022-08-06T07:17:02;99090.66;;;25.86;54.75
72855;BME280;60991;51.278;22.550;2022-08-06T07:18:34;99087.25;;;25.90;54.59
72855;BME280;60991;51.278;22.550;2022-08-06T07:20:07;99090.88;;;25.94;54.46
72855;BME280;60991;51.278;22.550;2022-08-06T07:21:39;99092.91;;;25.97;54.31
72855;BME280;60991;51.278;22.550;2022-08-06T07:23:10;99095.69;;;26.00;54.19
72855;BME280;60991;51.278;22.550;2022-08-06T07:24:41;99089.22;;;26.05;54.22
72855;BME280;60991;51.278;22.550;2022-08-06T07:26:13;99096.69;;;26.08;53.93
72855;BME280;60991;51.278;22.550;2022-08-06T07:27:48;99096.78;;;26.11;54.14
72855;BME280;60991;51.278;22.550;2022-08-06T07:29:19;99100.75;;;26.14;54.26
72855;BME280;60991;51.278;22.550;2022-08-06T07:30:50;99095.84;;;26.19;54.09
72855;BME280;60991;51.278;22.550;2022-08-06T07:32:21;99097.50;;;26.24;53.87
72855;BME280;60991;51.278;22.550;2022-08-06T07:33:53;99095.69;;;26.28;53.57
72855;BME280;60991;51.278;22.550;2022-08-06T07:35:24;99097.06;;;26.34;53.20
72855;BME280;60991;51.278;22.550;2022-08-06T07:36:56;99098.34;;;26.40;52.44
72855;BME280;60991;51.278;22.550;2022-08-06T07:38:28;99105.94;;;26.47;52.10
72855;BME280;60991;51.278;22.550;2022-08-06T07:40:02;99101.44;;;26.54;50.76
72855;BME280;60991;51.278;22.550;2022-08-06T07:41:34;99101.19;;;26.60;50.93
72855;BME280;60991;51.278;22.550;2022-08-06T07:43:10;99097.78;;;26.63;50.79
72855;BME280;60991;51.278;22.550;2022-08-06T07:44:48;99104.91;;;26.67;51.43
72855;BME280;60991;51.278;22.550;2022-08-06T07:46:23;99104.19;;;26.70;51.37
72855;BME280;60991;51.278;22.550;2022-08-06T07:47:56;99114.03;;;26.75;51.47
72855;BME280;60991;51.278;22.550;2022-08-06T07:49:41;99111.38;;;26.78;51.56
72855;BME280;60991;51.278;22.550;2022-08-06T07:51:13;99112.28;;;26.82;51.64
72855;BME280;60991;51.278;22.550;2022-08-06T07:52:44;99109.66;;;26.86;51.42
72855;BME280;60991;51.278;22.550;2022-08-06T07:54:16;99119.09;;;26.92;50.50
72855;BME280;60991;51.278;22.550;2022-08-06T07:55:47;99119.22;;;26.96;50.76
72855;BME280;60991;51.278;22.550;2022-08-06T07:57:18;99124.78;;;26.99;51.04
72855;BME280;60991;51.278;22.550;2022-08-06T07:58:49;99131.81;;;27.00;50.68
72855;BME280;60991;51.278;22.550;2022-08-06T08:00:21;99130.31;;;27.03;50.98
72855;BME280;60991;51.278;22.550;2022-08-06T08:01:52;99138.13;;;27.04;50.96
72855;BME280;60991;51.278;22.550;2022-08-06T08:03:23;99137.00;;;27.05;51.32
72855;BME280;60991;51.278;22.550;2022-08-06T08:04:53;99134.72;;;27.07;51.59
72855;BME280;60991;51.278;22.550;2022-08-06T08:06:25;99136.28;;;27.08;52.11
72855;BME280;60991;51.278;22.550;2022-08-06T08:07:55;99145.63;;;27.07;52.99
72855;BME280;60991;51.278;22.550;2022-08-06T08:09:27;99149.81;;;27.05;53.60
72855;BME280;60991;51.278;22.550;2022-08-06T08:10:57;99155.53;;;27.00;54.31
72855;BME280;60991;51.278;22.550;2022-08-06T08:12:28;99150.34;;;26.95;54.62
72855;BME280;60991;51.278;22.550;2022-08-06T08:13:59;99175.13;;;26.89;54.87
72855;BME280;60991;51.278;22.550;2022-08-06T08:15:32;99172.53;;;26.81;54.89
72855;BME280;60991;51.278;22.550;2022-08-06T08:17:03;99167.25;;;26.72;55.28
72855;BME280;60991;51.278;22.550;2022-08-06T08:18:33;99177.53;;;26.63;55.86
72855;BME280;60991;51.278;22.550;2022-08-06T08:20:08;99186.75;;;26.59;56.32
72855;BME280;60991;51.278;22.550;2022-08-06T08:21:39;99177.25;;;26.52;56.31
72855;BME280;60991;51.278;22.550;2022-08-06T08:23:12;99177.84;;;26.46;56.73
72855;BME280;60991;51.278;22.550;2022-08-06T08:24:45;99184.78;;;26.43;56.42
72855;BME280;60991;51.278;22.550;2022-08-06T08:26:15;99194.53;;;26.44;56.67
72855;BME280;60991;51.278;22.550;2022-08-06T08:27:46;99198.84;;;26.45;57.21
72855;BME280;60991;51.278;22.550;2022-08-06T08:29:16;99202.34;;;26.46;57.35
72855;BME280;60991;51.278;22.550;2022-08-06T08:30:46;99189.88;;;26.45;57.30
72855;BME280;60991;51.278;22.550;2022-08-06T08:32:17;99214.38;;;26.45;57.46
72855;BME280;60991;51.278;22.550;2022-08-06T08:33:47;99202.59;;;26.41;56.79
72855;BME280;60991;51.278;22.550;2022-08-06T08:35:17;99208.19;;;26.32;56.95